sensor_id;sensor_type;location;lat;lon;timestamp;temperature;humidity
7496;DHT22;3789;47.064;15.482;2022-12-11T00:01:27;2.50;99.90
7496;DHT22;3789;47.064;15.482;2022-12-11T00:04:02;2.70;99.90
7496;DHT22;3789;47.064;15.482;2022-12-11T00:06:32;2.80;99.90
7496;DHT22;3789;47.064;15.482;2022-12-11T00:09:02;2.90;99.90
7496;DHT22;3789;47.064;15.482;2022-12-11T00:11:38;3.00;99.90
7496;DHT22;3789;47.064;15.482;2022-12-11T00:14:06;2.90;99.90
7496;DHT22;3789;47.064;15.482;2022-12-11T00:16:39;2.90;99.90
7496;DHT22;3789;47.064;15.482;2022-12-11T00:19:15;2.90;99.90
7496;DHT22;3789;47.064;15.482;2022-12-11T00:21:45;2.80;99.90
7496;DHT22;3789;47.064;15.482;2022-12-11T00:24:22;2.90;99.90
7496;DHT22;3789;47.064;15.482;2022-12-11T00:26:50;2.90;99.90
7496;DHT22;3789;47.064;15.482;2022-12-11T00:29:19;2.90;99.90
7496;DHT22;3789;47.064;15.482;2022-12-11T00:31:49;2.90;99.90
7496;DHT22;3789;47.064;15.482;2022-12-11T00:34:24;2.90;99.90
7496;DHT22;3789;47.064;15.482;2022-12-11T00:36:55;2.90;99.90
7496;DHT22;3789;47.064;15.482;2022-12-11T00:39:25;2.90;99.90
7496;DHT22;3789;47.064;15.482;2022-12-11T00:41:55;2.90;99.90
7496;DHT22;3789;47.064;15.482;2022-12-11T00:44:25;2.90;99.90
7496;DHT22;3789;47.064;15.482;2022-12-11T00:46:57;3.00;99.90
7496;DHT22;3789;47.064;15.482;2022-12-11T00:49:27;3.00;99.90
7496;DHT22;3789;47.064;15.482;2022-12-11T00:51:57;3.00;99.90
7496;DHT22;3789;47.064;15.482;2022-12-11T00:54:35;3.00;99.90
7496;DHT22;3789;47.064;15.482;2022-12-11T00:57:04;3.00;99.90
7496;DHT22;3789;47.064;15.482;2022-12-11T00:59:36;3.00;99.90
7496;DHT22;3789;47.064;15.482;2022-12-11T01:02:08;2.70;99.90
7496;DHT22;3789;47.064;15.482;2022-12-11T01:04:40;1.40;99.90
7496;DHT22;3789;47.064;15.482;2022-12-11T01:07:10;0.70;99.90
7496;DHT22;3789;47.064;15.482;2022-12-11T01:09:46;-0.20;99.90
7496;DHT22;3789;47.064;15.482;2022-12-11T01:12:32;-0.20;99.90
7496;DHT22;3789;47.064;15.482;2022-12-11T01:15:02;-0.70;99.90
7496;DHT22;3789;47.064;15.482;2022-12-11T01:17:33;-1.10;99.90
7496;DHT22;3789;47.064;15.482;2022-12-11T01:20:11;-1.00;99.90
7496;DHT22;3789;47.064;15.482;2022-12-11T01:22:41;-1.40;99.90
7496;DHT22;3789;47.064;15.482;2022-12-11T01:25:12;-1.50;99.90
7496;DHT22;3789;47.064;15.482;2022-12-11T01:27:50;-1.40;99.90
7496;DHT22;3789;47.064;15.482;2022-12-11T01:30:22;-1.20;99.90
7496;DHT22;3789;47.064;15.482;2022-12-11T01:32:53;-0.50;99.90
7496;DHT22;3789;47.064;15.482;2022-12-11T01:35:30;0.70;99.90
7496;DHT22;3789;47.064;15.482;2022-12-11T01:38:00;1.60;99.90
7496;DHT22;3789;47.064;15.482;2022-12-11T01:40:29;2.10;99.90
7496;DHT22;3789;47.064;15.482;2022-12-11T01:42:58;2.50;99.90
7496;DHT22;3789;47.064;15.482;2022-12-11T01:46:00;2.60;99.90
7496;DHT22;3789;47.064;15.482;2022-12-11T01:48:38;2.70;99.90
7496;DHT22;3789;47.064;15.482;2022-12-11T01:51:09;2.80;99.90
7496;DHT22;3789;47.064;15.482;2022-12-11T01:53:42;2.80;99.90
7496;DHT22;3789;47.064;15.482;2022-12-11T01:56:13;2.80;99.90
7496;DHT22;3789;47.064;15.482;2022-12-11T01:58:48;2.80;99.90
7496;DHT22;3789;47.064;15.482;2022-12-11T02:01:47;2.80;99.90
7496;DHT22;3789;47.064;15.482;2022-12-11T02:04:19;2.80;99.90
7496;DHT22;3789;47.064;15.482;2022-12-11T02:06:50;2.90;99.90
7496;DHT22;3789;47.064;15.482;2022-12-11T02:09:24;3.00;99.90
7496;DHT22;3789;47.064;15.482;2022-12-11T02:15:48;3.10;99.90
7496;DHT22;3789;47.064;15.482;2022-12-11T02:18:41;3.10;99.90
7496;DHT22;3789;47.064;15.482;2022-12-11T02:24:22;3.10;99.90
7496;DHT22;3789;47.064;15.482;2022-12-11T02:30:14;3.10;99.90
7496;DHT22;3789;47.064;15.482;2022-12-11T02:32:52;3.10;99.90
7496;DHT22;3789;47.064;15.482;2022-12-11T02:35:31;3.10;99.90
7496;DHT22;3789;47.064;15.482;2022-12-11T02:38:24;3.10;99.90
7496;DHT22;3789;47.064;15.482;2022-12-11T02:40:58;3.20;99.90
7496;DHT22;3789;47.064;15.482;2022-12-11T02:43:50;3.20;99.90
7496;DHT22;3789;47.064;15.482;2022-12-11T02:46:20;3.10;99.90
7496;DHT22;3789;47.064;15.482;2022-12-11T02:48:50;3.10;99.90
7496;DHT22;3789;47.064;15.482;2022-12-11T02:51:27;3.10;99.90
7496;DHT22;3789;47.064;15.482;2022-12-11T02:53:59;3.10;99.90
7496;DHT22;3789;47.064;15.482;2022-12-11T10:55:27;4.30;97.10
7496;DHT22;3789;47.064;15.482;2022-12-11T10:58:03;4.30;97.80
7496;DHT22;3789;47.064;15.482;2022-12-11T11:00:38;4.30;96.60
7496;DHT22;3789;47.064;15.482;2022-12-11T11:03:24;4.30;96.30
7496;DHT22;3789;47.064;15.482;2022-12-11T11:08:42;4.30;97.30
7496;DHT22;3789;47.064;15.482;2022-12-11T11:11:34;4.30;96.90
7496;DHT22;3789;47.064;15.482;2022-12-11T11:14:15;4.20;94.70
7496;DHT22;3789;47.064;15.482;2022-12-11T11:16:48;4.10;96.20
7496;DHT22;3789;47.064;15.482;2022-12-11T11:19:35;4.20;96.30
7496;DHT22;3789;47.064;15.482;2022-12-11T11:22:24;4.30;96.00
7496;DHT22;3789;47.064;15.482;2022-12-11T11:24:57;4.40;95.80
7496;DHT22;3789;47.064;15.482;2022-12-11T11:27:38;4.40;95.20
7496;DHT22;3789;47.064;15.482;2022-12-11T11:30:29;4.50;95.60
7496;DHT22;3789;47.064;15.482;2022-12-11T11:33:21;4.40;94.10
7496;DHT22;3789;47.064;15.482;2022-12-11T11:36:04;4.20;93.80
7496;DHT22;3789;47.064;15.482;2022-12-11T11:38:40;4.40;95.70
7496;DHT22;3789;47.064;15.482;2022-12-11T11:44:45;4.60;95.10
7496;DHT22;3789;47.064;15.482;2022-12-11T11:47:38;4.70;94.80
7496;DHT22;3789;47.064;15.482;2022-12-11T11:50:33;4.70;94.70
7496;DHT22;3789;47.064;15.482;2022-12-11T11:53:12;4.70;96.80
7496;DHT22;3789;47.064;15.482;2022-12-11T12:01:14;4.80;94.20
7496;DHT22;3789;47.064;15.482;2022-12-11T12:03:54;4.70;95.60
7496;DHT22;3789;47.064;15.482;2022-12-11T12:10:18;4.80;94.30
7496;DHT22;3789;47.064;15.482;2022-12-11T12:16:01;4.50;95.40
7496;DHT22;3789;47.064;15.482;2022-12-11T12:19:28;3.20;91.10
7496;DHT22;3789;47.064;15.482;2022-12-11T12:25:37;0.10;92.10
7496;DHT22;3789;47.064;15.482;2022-12-11T12:40:19;-0.10;96.00
7496;DHT22;3789;47.064;15.482;2022-12-11T12:44:11;0.20;95.50
7496;DHT22;3789;47.064;15.482;2022-12-11T12:49:23;-1.20;96.80
7496;DHT22;3789;47.064;15.482;2022-12-11T12:51:53;-1.30;96.70
7496;DHT22;3789;47.064;15.482;2022-12-11T12:54:43;-1.10;96.80
7496;DHT22;3789;47.064;15.482;2022-12-11T12:57:43;-1.00;96.60
7496;DHT22;3789;47.064;15.482;2022-12-11T13:00:12;-1.00;96.60
7496;DHT22;3789;47.064;15.482;2022-12-11T13:02:49;-0.50;97.70
7496;DHT22;3789;47.064;15.482;2022-12-11T13:05:31;-0.40;97.30
7496;DHT22;3789;47.064;15.482;2022-12-11T13:08:06;-0.70;96.30
7496;DHT22;3789;47.064;15.482;2022-12-11T13:10:55;-0.70;96.90
7496;DHT22;3789;47.064;15.482;2022-12-11T13:14:05;-0.20;99.50
7496;DHT22;3789;47.064;15.482;2022-12-11T13:16:40;0.70;98.10
7496;DHT22;3789;47.064;15.482;2022-12-11T13:25:15;2.00;94.50
7496;DHT22;3789;47.064;15.482;2022-12-11T13:27:47;2.20;96.00
7496;DHT22;3789;47.064;15.482;2022-12-11T13:30:23;2.30;95.70
7496;DHT22;3789;47.064;15.482;2022-12-11T13:33:28;2.50;95.40
7496;DHT22;3789;47.064;15.482;2022-12-11T13:36:24;2.60;93.30
7496;DHT22;3789;47.064;15.482;2022-12-11T13:39:18;2.70;94.40
7496;DHT22;3789;47.064;15.482;2022-12-11T13:41:51;2.60;92.80
7496;DHT22;3789;47.064;15.482;2022-12-11T13:44:31;2.60;94.30
7496;DHT22;3789;47.064;15.482;2022-12-11T13:47:02;2.60;93.10
7496;DHT22;3789;47.064;15.482;2022-12-11T13:49:41;2.60;93.70
7496;DHT22;3789;47.064;15.482;2022-12-11T13:52:28;2.60;94.00
7496;DHT22;3789;47.064;15.482;2022-12-11T13:54:59;2.60;93.80
7496;DHT22;3789;47.064;15.482;2022-12-11T13:57:28;2.50;94.00
7496;DHT22;3789;47.064;15.482;2022-12-11T14:00:29;2.40;94.90
7496;DHT22;3789;47.064;15.482;2022-12-11T14:03:05;2.40;94.80
7496;DHT22;3789;47.064;15.482;2022-12-11T14:05:42;2.50;95.50
7496;DHT22;3789;47.064;15.482;2022-12-11T14:08:21;2.50;95.30
7496;DHT22;3789;47.064;15.482;2022-12-11T14:10:51;2.50;95.50
7496;DHT22;3789;47.064;15.482;2022-12-11T14:13:36;2.50;95.70
7496;DHT22;3789;47.064;15.482;2022-12-11T14:16:27;2.50;95.60
7496;DHT22;3789;47.064;15.482;2022-12-11T14:19:05;2.30;96.20
7496;DHT22;3789;47.064;15.482;2022-12-11T14:21:35;2.20;96.50
7496;DHT22;3789;47.064;15.482;2022-12-11T14:24:04;2.30;95.90
7496;DHT22;3789;47.064;15.482;2022-12-11T14:26:35;2.20;95.40
7496;DHT22;3789;47.064;15.482;2022-12-11T14:29:23;2.20;96.30
7496;DHT22;3789;47.064;15.482;2022-12-11T14:31:54;2.10;95.90
7496;DHT22;3789;47.064;15.482;2022-12-11T14:37:04;2.00;95.70
7496;DHT22;3789;47.064;15.482;2022-12-11T14:39:45;1.90;95.70
7496;DHT22;3789;47.064;15.482;2022-12-11T14:42:21;1.80;95.70
7496;DHT22;3789;47.064;15.482;2022-12-11T14:44:55;1.70;95.30
7496;DHT22;3789;47.064;15.482;2022-12-11T14:47:27;1.40;95.90
7496;DHT22;3789;47.064;15.482;2022-12-11T14:50:20;1.40;96.80
7496;DHT22;3789;47.064;15.482;2022-12-11T14:52:59;1.60;96.80
7496;DHT22;3789;47.064;15.482;2022-12-11T14:55:58;1.60;96.50
7496;DHT22;3789;47.064;15.482;2022-12-11T14:58:51;1.60;97.40
7496;DHT22;3789;47.064;15.482;2022-12-11T15:01:39;1.40;97.60
7496;DHT22;3789;47.064;15.482;2022-12-11T15:04:39;1.50;97.90
7496;DHT22;3789;47.064;15.482;2022-12-11T15:07:32;1.50;97.80
7496;DHT22;3789;47.064;15.482;2022-12-11T15:10:02;1.50;98.70
7496;DHT22;3789;47.064;15.482;2022-12-11T15:12:48;1.50;98.50
7496;DHT22;3789;47.064;15.482;2022-12-11T15:15:17;1.50;97.90
7496;DHT22;3789;47.064;15.482;2022-12-11T15:17:51;1.60;98.30
7496;DHT22;3789;47.064;15.482;2022-12-11T15:20:28;1.50;98.30
7496;DHT22;3789;47.064;15.482;2022-12-11T15:23:05;1.50;97.90
7496;DHT22;3789;47.064;15.482;2022-12-11T15:25:55;1.40;98.20
7496;DHT22;3789;47.064;15.482;2022-12-11T15:28:35;1.50;98.00
7496;DHT22;3789;47.064;15.482;2022-12-11T15:31:27;1.50;98.40
7496;DHT22;3789;47.064;15.482;2022-12-11T15:33:55;1.50;98.70
7496;DHT22;3789;47.064;15.482;2022-12-11T15:36:43;1.40;99.00
7496;DHT22;3789;47.064;15.482;2022-12-11T15:39:11;1.40;99.00
7496;DHT22;3789;47.064;15.482;2022-12-11T15:41:41;1.20;99.90
7496;DHT22;3789;47.064;15.482;2022-12-11T15:44:20;1.20;99.90
7496;DHT22;3789;47.064;15.482;2022-12-11T15:46:55;1.30;99.90
7496;DHT22;3789;47.064;15.482;2022-12-11T15:49:26;1.30;99.90
7496;DHT22;3789;47.064;15.482;2022-12-11T15:51:54;0.90;99.90
7496;DHT22;3789;47.064;15.482;2022-12-11T15:54:23;0.80;99.90
7496;DHT22;3789;47.064;15.482;2022-12-11T15:56:53;0.60;99.90
7496;DHT22;3789;47.064;15.482;2022-12-11T15:59:22;0.70;99.90
7496;DHT22;3789;47.064;15.482;2022-12-11T16:01:49;0.80;99.90
7496;DHT22;3789;47.064;15.482;2022-12-11T16:04:18;0.80;99.90
7496;DHT22;3789;47.064;15.482;2022-12-11T16:06:48;0.70;99.90
7496;DHT22;3789;47.064;15.482;2022-12-11T16:09:17;0.60;99.90
7496;DHT22;3789;47.064;15.482;2022-12-11T16:11:46;0.50;99.90
7496;DHT22;3789;47.064;15.482;2022-12-11T16:14:16;0.60;99.90
7496;DHT22;3789;47.064;15.482;2022-12-11T16:16:45;0.60;99.90
7496;DHT22;3789;47.064;15.482;2022-12-11T16:19:13;0.50;99.90
7496;DHT22;3789;47.064;15.482;2022-12-11T16:21:43;0.50;99.90
7496;DHT22;3789;47.064;15.482;2022-12-11T16:24:10;0.50;99.90
7496;DHT22;3789;47.064;15.482;2022-12-11T16:26:37;0.40;99.90
7496;DHT22;3789;47.064;15.482;2022-12-11T16:29:12;0.40;99.90
7496;DHT22;3789;47.064;15.482;2022-12-11T16:31:42;0.40;99.90
7496;DHT22;3789;47.064;15.482;2022-12-11T16:34:09;0.50;99.90
7496;DHT22;3789;47.064;15.482;2022-12-11T16:36:36;0.30;99.90
7496;DHT22;3789;47.064;15.482;2022-12-11T16:39:09;0.50;99.90
7496;DHT22;3789;47.064;15.482;2022-12-11T16:41:38;0.50;99.90
7496;DHT22;3789;47.064;15.482;2022-12-11T16:44:23;0.60;99.90
7496;DHT22;3789;47.064;15.482;2022-12-11T16:46:54;0.40;99.90
7496;DHT22;3789;47.064;15.482;2022-12-11T16:49:23;0.20;99.90
7496;DHT22;3789;47.064;15.482;2022-12-11T16:51:52;0.20;99.90
7496;DHT22;3789;47.064;15.482;2022-12-11T16:54:21;0.30;99.90
7496;DHT22;3789;47.064;15.482;2022-12-11T16:56:58;0.20;99.90
7496;DHT22;3789;47.064;15.482;2022-12-11T16:59:26;0.00;99.90
7496;DHT22;3789;47.064;15.482;2022-12-11T17:02:10;0.00;99.90
7496;DHT22;3789;47.064;15.482;2022-12-11T17:04:39;-0.10;99.90
7496;DHT22;3789;47.064;15.482;2022-12-11T17:07:22;-0.10;99.90
7496;DHT22;3789;47.064;15.482;2022-12-11T17:09:53;-0.20;99.90
7496;DHT22;3789;47.064;15.482;2022-12-11T17:12:23;-0.20;99.90
7496;DHT22;3789;47.064;15.482;2022-12-11T17:14:55;-0.20;99.90
7496;DHT22;3789;47.064;15.482;2022-12-11T17:17:25;-0.30;99.90
7496;DHT22;3789;47.064;15.482;2022-12-11T17:20:01;-0.20;99.90
7496;DHT22;3789;47.064;15.482;2022-12-11T17:22:30;-0.10;99.90
7496;DHT22;3789;47.064;15.482;2022-12-11T17:24:58;-0.20;99.90
7496;DHT22;3789;47.064;15.482;2022-12-11T17:27:25;-0.10;99.90
7496;DHT22;3789;47.064;15.482;2022-12-11T17:29:56;0.00;99.90
7496;DHT22;3789;47.064;15.482;2022-12-11T17:32:27;-0.90;99.90
7496;DHT22;3789;47.064;15.482;2022-12-11T17:34:59;-2.40;99.90
7496;DHT22;3789;47.064;15.482;2022-12-11T17:37:37;-3.50;99.90
7496;DHT22;3789;47.064;15.482;2022-12-11T17:40:09;-4.40;99.90
7496;DHT22;3789;47.064;15.482;2022-12-11T17:42:45;-4.80;99.90
7496;DHT22;3789;47.064;15.482;2022-12-11T17:45:17;-5.10;99.90
7496;DHT22;3789;47.064;15.482;2022-12-11T17:47:50;-5.40;99.90
7496;DHT22;3789;47.064;15.482;2022-12-11T17:50:26;-5.60;99.90
7496;DHT22;3789;47.064;15.482;2022-12-11T17:52:55;-5.60;99.90
7496;DHT22;3789;47.064;15.482;2022-12-11T17:55:26;-5.60;99.90
7496;DHT22;3789;47.064;15.482;2022-12-11T17:57:55;-5.60;99.90
7496;DHT22;3789;47.064;15.482;2022-12-11T18:00:24;-5.80;99.90
7496;DHT22;3789;47.064;15.482;2022-12-11T18:03:00;-5.50;99.90
7496;DHT22;3789;47.064;15.482;2022-12-11T18:05:29;-5.50;99.90
7496;DHT22;3789;47.064;15.482;2022-12-11T18:08:20;-5.60;99.90
7496;DHT22;3789;47.064;15.482;2022-12-11T18:10:52;-6.00;99.90
7496;DHT22;3789;47.064;15.482;2022-12-11T18:13:43;-6.20;99.90
7496;DHT22;3789;47.064;15.482;2022-12-11T18:16:22;-6.40;99.90
7496;DHT22;3789;47.064;15.482;2022-12-11T18:18:53;-6.50;99.90
7496;DHT22;3789;47.064;15.482;2022-12-11T18:21:24;-6.70;99.90
7496;DHT22;3789;47.064;15.482;2022-12-11T18:23:55;-6.60;99.90
7496;DHT22;3789;47.064;15.482;2022-12-11T18:26:24;-6.70;99.90
7496;DHT22;3789;47.064;15.482;2022-12-11T18:29:01;-6.80;99.90
7496;DHT22;3789;47.064;15.482;2022-12-11T18:31:37;-7.00;99.90
7496;DHT22;3789;47.064;15.482;2022-12-11T18:34:11;-7.10;99.90
7496;DHT22;3789;47.064;15.482;2022-12-11T18:36:40;-7.10;99.90
7496;DHT22;3789;47.064;15.482;2022-12-11T18:39:12;-7.10;99.90
7496;DHT22;3789;47.064;15.482;2022-12-11T18:41:39;-7.10;99.90
7496;DHT22;3789;47.064;15.482;2022-12-11T18:44:08;-7.20;99.90
7496;DHT22;3789;47.064;15.482;2022-12-11T18:46:37;-7.30;99.90
7496;DHT22;3789;47.064;15.482;2022-12-11T18:49:09;-7.30;99.90
7496;DHT22;3789;47.064;15.482;2022-12-11T18:51:39;-7.40;99.90
7496;DHT22;3789;47.064;15.482;2022-12-11T18:54:08;-7.40;99.90
7496;DHT22;3789;47.064;15.482;2022-12-11T18:56:37;-7.40;99.90
7496;DHT22;3789;47.064;15.482;2022-12-11T18:59:05;-7.40;99.90
7496;DHT22;3789;47.064;15.482;2022-12-11T19:01:35;-7.40;99.90
7496;DHT22;3789;47.064;15.482;2022-12-11T19:04:08;-7.40;99.90
7496;DHT22;3789;47.064;15.482;2022-12-11T19:06:38;-7.50;99.90
7496;DHT22;3789;47.064;15.482;2022-12-11T19:09:11;-7.50;99.90
7496;DHT22;3789;47.064;15.482;2022-12-11T19:11:43;-7.60;99.90
7496;DHT22;3789;47.064;15.482;2022-12-11T19:14:20;-7.60;99.90
7496;DHT22;3789;47.064;15.482;2022-12-11T19:16:49;-7.60;99.90
7496;DHT22;3789;47.064;15.482;2022-12-11T19:19:20;-7.70;99.90
7496;DHT22;3789;47.064;15.482;2022-12-11T19:21:49;-7.70;99.90
7496;DHT22;3789;47.064;15.482;2022-12-11T19:24:23;-7.70;99.90
7496;DHT22;3789;47.064;15.482;2022-12-11T19:26:51;-7.70;99.90
7496;DHT22;3789;47.064;15.482;2022-12-11T19:29:31;-7.70;99.90
7496;DHT22;3789;47.064;15.482;2022-12-11T19:32:04;-7.40;99.90
7496;DHT22;3789;47.064;15.482;2022-12-11T19:34:35;-6.40;99.90
7496;DHT22;3789;47.064;15.482;2022-12-11T19:37:06;-5.70;99.90
7496;DHT22;3789;47.064;15.482;2022-12-11T19:39:37;-5.20;99.90
7496;DHT22;3789;47.064;15.482;2022-12-11T19:42:06;-4.70;99.90
7496;DHT22;3789;47.064;15.482;2022-12-11T19:44:35;-4.30;99.90
7496;DHT22;3789;47.064;15.482;2022-12-11T19:47:04;-3.90;99.90
7496;DHT22;3789;47.064;15.482;2022-12-11T19:49:33;-3.50;99.90
7496;DHT22;3789;47.064;15.482;2022-12-11T19:52:01;-3.20;99.90
7496;DHT22;3789;47.064;15.482;2022-12-11T19:54:31;-3.00;99.90
7496;DHT22;3789;47.064;15.482;2022-12-11T19:57:03;-2.60;99.90
7496;DHT22;3789;47.064;15.482;2022-12-11T19:59:34;-2.40;99.90
7496;DHT22;3789;47.064;15.482;2022-12-11T20:02:12;-2.20;99.90
7496;DHT22;3789;47.064;15.482;2022-12-11T20:04:39;-2.00;99.90
7496;DHT22;3789;47.064;15.482;2022-12-11T20:07:10;-1.90;99.90
7496;DHT22;3789;47.064;15.482;2022-12-11T20:09:58;-1.80;99.90
7496;DHT22;3789;47.064;15.482;2022-12-11T20:12:28;-1.70;99.90
7496;DHT22;3789;47.064;15.482;2022-12-11T20:14:59;-1.70;99.90
7496;DHT22;3789;47.064;15.482;2022-12-11T20:17:35;-1.50;99.90
7496;DHT22;3789;47.064;15.482;2022-12-11T20:20:06;-1.50;99.90
7496;DHT22;3789;47.064;15.482;2022-12-11T20:22:40;-1.40;99.90
7496;DHT22;3789;47.064;15.482;2022-12-11T20:25:11;-1.30;99.90
7496;DHT22;3789;47.064;15.482;2022-12-11T20:27:45;-1.20;99.90
7496;DHT22;3789;47.064;15.482;2022-12-11T20:30:15;-1.10;99.90
7496;DHT22;3789;47.064;15.482;2022-12-11T20:32:44;-1.10;99.90
7496;DHT22;3789;47.064;15.482;2022-12-11T20:35:11;-1.10;99.90
7496;DHT22;3789;47.064;15.482;2022-12-11T20:37:40;-1.10;99.90
7496;DHT22;3789;47.064;15.482;2022-12-11T20:40:11;-1.00;99.90
7496;DHT22;3789;47.064;15.482;2022-12-11T20:42:47;-0.90;99.90
7496;DHT22;3789;47.064;15.482;2022-12-11T20:45:17;-0.90;99.90
7496;DHT22;3789;47.064;15.482;2022-12-11T20:47:46;-0.90;99.90
7496;DHT22;3789;47.064;15.482;2022-12-11T20:50:19;-0.90;99.90
7496;DHT22;3789;47.064;15.482;2022-12-11T20:52:47;-0.90;99.90
7496;DHT22;3789;47.064;15.482;2022-12-11T20:55:14;-0.80;99.90
7496;DHT22;3789;47.064;15.482;2022-12-11T20:57:44;-0.70;99.90
7496;DHT22;3789;47.064;15.482;2022-12-11T21:00:15;-0.70;99.90
7496;DHT22;3789;47.064;15.482;2022-12-11T21:02:49;-0.70;99.90
7496;DHT22;3789;47.064;15.482;2022-12-11T21:05:17;-0.60;99.90
7496;DHT22;3789;47.064;15.482;2022-12-11T21:07:47;-0.60;99.90
7496;DHT22;3789;47.064;15.482;2022-12-11T21:10:16;-0.70;99.90
7496;DHT22;3789;47.064;15.482;2022-12-11T21:12:52;-0.60;99.90
7496;DHT22;3789;47.064;15.482;2022-12-11T21:15:21;-0.60;99.90
7496;DHT22;3789;47.064;15.482;2022-12-11T21:17:51;-0.60;99.90
7496;DHT22;3789;47.064;15.482;2022-12-11T21:20:19;-0.60;99.90
7496;DHT22;3789;47.064;15.482;2022-12-11T21:22:52;-0.60;99.90
7496;DHT22;3789;47.064;15.482;2022-12-11T21:25:24;-0.60;99.90
7496;DHT22;3789;47.064;15.482;2022-12-11T21:27:52;-0.70;99.90
7496;DHT22;3789;47.064;15.482;2022-12-11T21:30:20;-0.70;99.90
7496;DHT22;3789;47.064;15.482;2022-12-11T21:32:50;-0.60;99.90
7496;DHT22;3789;47.064;15.482;2022-12-11T21:35:19;-0.60;99.90
7496;DHT22;3789;47.064;15.482;2022-12-11T21:37:50;-0.70;99.90
7496;DHT22;3789;47.064;15.482;2022-12-11T21:40:19;-0.70;99.90
7496;DHT22;3789;47.064;15.482;2022-12-11T21:42:49;-0.70;99.90
7496;DHT22;3789;47.064;15.482;2022-12-11T21:45:18;-0.70;99.90
7496;DHT22;3789;47.064;15.482;2022-12-11T21:48:06;-0.70;99.90
7496;DHT22;3789;47.064;15.482;2022-12-11T21:50:34;-0.60;99.90
7496;DHT22;3789;47.064;15.482;2022-12-11T21:53:02;-0.60;99.90
7496;DHT22;3789;47.064;15.482;2022-12-11T21:55:32;-0.60;99.90
7496;DHT22;3789;47.064;15.482;2022-12-11T21:58:00;-0.60;99.90
7496;DHT22;3789;47.064;15.482;2022-12-11T22:00:28;-0.60;99.90
7496;DHT22;3789;47.064;15.482;2022-12-11T22:02:57;-0.60;99.90
7496;DHT22;3789;47.064;15.482;2022-12-11T22:06:11;-0.60;99.90
7496;DHT22;3789;47.064;15.482;2022-12-11T22:08:41;-0.60;99.90
7496;DHT22;3789;47.064;15.482;2022-12-11T22:11:12;-0.60;99.90
7496;DHT22;3789;47.064;15.482;2022-12-11T22:13:42;-0.60;99.90
7496;DHT22;3789;47.064;15.482;2022-12-11T22:16:18;-0.60;99.90
7496;DHT22;3789;47.064;15.482;2022-12-11T22:18:47;-0.60;99.90
7496;DHT22;3789;47.064;15.482;2022-12-11T22:21:19;-0.60;99.90
7496;DHT22;3789;47.064;15.482;2022-12-11T22:23:48;-0.60;99.90
7496;DHT22;3789;47.064;15.482;2022-12-11T22:26:28;-0.60;99.90
7496;DHT22;3789;47.064;15.482;2022-12-11T22:28:55;-0.60;99.90
7496;DHT22;3789;47.064;15.482;2022-12-11T22:31:25;-0.60;99.90
7496;DHT22;3789;47.064;15.482;2022-12-11T22:33:55;-0.60;99.90
7496;DHT22;3789;47.064;15.482;2022-12-11T22:36:26;-0.70;99.90
7496;DHT22;3789;47.064;15.482;2022-12-11T22:39:02;-0.60;99.90
7496;DHT22;3789;47.064;15.482;2022-12-11T22:41:35;-0.60;99.90
7496;DHT22;3789;47.064;15.482;2022-12-11T22:44:19;-0.60;99.90
7496;DHT22;3789;47.064;15.482;2022-12-11T22:46:48;-0.50;99.90
7496;DHT22;3789;47.064;15.482;2022-12-11T22:49:18;-1.20;99.90
7496;DHT22;3789;47.064;15.482;2022-12-11T22:51:47;-2.50;99.90
7496;DHT22;3789;47.064;15.482;2022-12-11T22:54:16;-3.60;99.90
7496;DHT22;3789;47.064;15.482;2022-12-11T22:56:46;-4.40;99.90
7496;DHT22;3789;47.064;15.482;2022-12-11T22:59:24;-4.90;99.90
7496;DHT22;3789;47.064;15.482;2022-12-11T23:01:53;-5.20;99.90
7496;DHT22;3789;47.064;15.482;2022-12-11T23:04:23;-5.40;99.90
7496;DHT22;3789;47.064;15.482;2022-12-11T23:06:53;-5.50;99.90
7496;DHT22;3789;47.064;15.482;2022-12-11T23:09:21;-5.50;99.90
7496;DHT22;3789;47.064;15.482;2022-12-11T23:11:53;-5.50;99.90
7496;DHT22;3789;47.064;15.482;2022-12-11T23:14:23;-5.60;99.90
7496;DHT22;3789;47.064;15.482;2022-12-11T23:16:55;-5.60;99.90
7496;DHT22;3789;47.064;15.482;2022-12-11T23:19:24;-5.60;99.90
7496;DHT22;3789;47.064;15.482;2022-12-11T23:21:54;-5.50;99.90
7496;DHT22;3789;47.064;15.482;2022-12-11T23:24:25;-5.50;99.90
7496;DHT22;3789;47.064;15.482;2022-12-11T23:26:54;-5.50;99.90
7496;DHT22;3789;47.064;15.482;2022-12-11T23:29:23;-5.20;99.90
7496;DHT22;3789;47.064;15.482;2022-12-11T23:31:51;-4.70;99.90
7496;DHT22;3789;47.064;15.482;2022-12-11T23:34:27;-4.30;99.90
7496;DHT22;3789;47.064;15.482;2022-12-11T23:37:00;-3.80;99.90
7496;DHT22;3789;47.064;15.482;2022-12-11T23:39:38;-3.40;99.90
7496;DHT22;3789;47.064;15.482;2022-12-11T23:42:15;-3.00;99.90
7496;DHT22;3789;47.064;15.482;2022-12-11T23:44:45;-2.70;99.90
7496;DHT22;3789;47.064;15.482;2022-12-11T23:47:22;-2.50;99.90
7496;DHT22;3789;47.064;15.482;2022-12-11T23:49:58;-2.30;99.90
7496;DHT22;3789;47.064;15.482;2022-12-11T23:52:27;-2.10;99.90
7496;DHT22;3789;47.064;15.482;2022-12-11T23:55:05;-1.90;99.90
7496;DHT22;3789;47.064;15.482;2022-12-11T23:57:35;-1.80;99.90
